Yaquina — AEPD — position and weather

sailwx.info

Track history (hours):
 
Tides and Currents Weather Stations Pressure Air Temp Water Temp Dewpoint Dewpoint Depression Visibility Wind Speed Wind Dir Waves Ship Positions

Yaquina

Last reported at 2018-Jun-19 01:33 UTC. Time now 2018-Jun-19 23:26 UTC.
Position N 42°19' W 124°30'.

Length 59 m; draft 6 m.

Type: Dredging. MMSI: 366917000.

Date/timePositionNaut miles runAvg speedWind from/ knotsBaromVisibWave heightAir tempDewpointWater temp
2018-Jun-19 01:33N 42°19' W 124°30'0 9.1
2018-Jun-19 01:30N 42°19' W 124°31'6 0.4
2018-Jun-18 11:42N 42°24' W 124°27'  
2018-Jun-13 08:20N 43°13' W 124°29'411.2
2018-Jun-13 08:01N 43°17' W 124°28'611.1
2018-Jun-13 07:30N 43°22' W 124°25'2 3.7
2018-Jun-13 06:59N 43°23' W 124°23'4 5.5
2018-Jun-13 06:14N 43°24' W 124°17'1 0.4
2018-Jun-13 04:33N 43°24' W 124°17'112.1
2018-Jun-13 04:30N 43°24' W 124°17'0 0.2
2018-Jun-13 02:06N 43°23' W 124°17'1 8.6
2018-Jun-13 01:57N 43°24' W 124°17'4 1.8
2018-Jun-12 23:32N 43°23' W 124°22'1 7.4
2018-Jun-12 23:28N 43°23' W 124°22'2 0.8
2018-Jun-12 20:51N 43°22' W 124°19'2 6.4
2018-Jun-12 20:30N 43°22' W 124°22'0 0.0
2018-Jun-12 03:11N 43°22' W 124°22'1 3.2
2018-Jun-12 02:59N 43°23' W 124°22'  
Track history (hours):
 
Tides and Currents Weather Stations Pressure Air Temp Water Temp Dewpoint Dewpoint Depression Visibility Wind Speed Wind Dir Waves Ship Positions

Yaquina

Last reported at 2018-Jun-19 01:33 UTC. Time now 2018-Jun-19 23:26 UTC.
Position N 42°19' W 124°30'.

Length 59 m; draft 6 m.

Type: Dredging. MMSI: 366917000.

Date/timePositionNaut miles runAvg speedWind from/ knotsBaromVisibWave heightAir tempDewpointWater temp
2018-Jun-19 01:33N 42°19' W 124°30'0 9.1
2018-Jun-19 01:30N 42°19' W 124°31'6 0.4
2018-Jun-18 11:42N 42°24' W 124°27'  
2018-Jun-13 08:20N 43°13' W 124°29'411.2
2018-Jun-13 08:01N 43°17' W 124°28'611.1
2018-Jun-13 07:30N 43°22' W 124°25'2 3.7
2018-Jun-13 06:59N 43°23' W 124°23'4 5.5
2018-Jun-13 06:14N 43°24' W 124°17'1 0.4
2018-Jun-13 04:33N 43°24' W 124°17'112.1
2018-Jun-13 04:30N 43°24' W 124°17'0 0.2
2018-Jun-13 02:06N 43°23' W 124°17'1 8.6
2018-Jun-13 01:57N 43°24' W 124°17'4 1.8
2018-Jun-12 23:32N 43°23' W 124°22'1 7.4
2018-Jun-12 23:28N 43°23' W 124°22'2 0.8
2018-Jun-12 20:51N 43°22' W 124°19'2 6.4
2018-Jun-12 20:30N 43°22' W 124°22'0 0.0
2018-Jun-12 03:11N 43°22' W 124°22'1 3.2
2018-Jun-12 02:59N 43°23' W 124°22'  

Dump ship's entire track history